createdAt,value
2022-08-16T00:07:46.223Z,19.61
2022-08-16T00:10:54.376Z,19.65
2022-08-16T00:18:08.061Z,19.62
2022-08-16T00:28:36.458Z,19.46
2022-08-16T00:35:51.407Z,19.39
2022-08-16T00:50:35.659Z,19.15
2022-08-16T00:57:59.992Z,19.01
2022-08-16T01:04:30.939Z,18.93
2022-08-16T01:11:18.367Z,18.94
2022-08-16T01:15:43.073Z,18.94
2022-08-16T01:18:44.439Z,18.95
2022-08-16T01:47:08.595Z,18.82
2022-08-16T01:51:09.644Z,18.82
2022-08-16T01:57:36.447Z,18.81
2022-08-16T02:07:59.425Z,18.92
2022-08-16T02:11:18.433Z,18.98
2022-08-16T02:17:55.424Z,19.05
2022-08-16T02:21:09.614Z,19.06
2022-08-16T02:24:32.211Z,19.06
2022-08-16T02:27:50.908Z,19.04
2022-08-16T02:31:18.526Z,19.01
2022-08-16T02:34:32.913Z,18.97
2022-08-16T02:37:52.123Z,18.95
2022-08-16T02:41:00.505Z,18.91
2022-08-16T02:44:07.410Z,18.90
2022-08-16T02:50:54.230Z,18.83
2022-08-16T02:54:14.432Z,18.82
2022-08-16T02:57:29.435Z,18.82
2022-08-16T03:00:36.471Z,18.80
2022-08-16T03:04:29.143Z,18.79
2022-08-16T03:07:27.681Z,18.76
2022-08-16T03:10:41.442Z,18.74
2022-08-16T03:13:56.876Z,18.74
2022-08-16T03:17:07.051Z,18.77
2022-08-16T03:23:56.938Z,18.91
2022-08-16T03:26:58.147Z,18.98
2022-08-16T03:30:16.192Z,19.04
2022-08-16T03:32:51.248Z,19.07
2022-08-16T03:35:33.432Z,19.10
2022-08-16T03:38:32.674Z,19.12
2022-08-16T03:41:03.047Z,19.12
2022-08-16T03:43:51.762Z,19.11
2022-08-16T03:46:48.142Z,19.10
2022-08-16T03:49:12.553Z,19.08
2022-08-16T03:51:43.240Z,19.06
2022-08-16T03:54:15.087Z,19.05
2022-08-16T03:56:57.168Z,19.03
2022-08-16T03:59:29.791Z,19.02
2022-08-16T04:02:01.691Z,19.00
2022-08-16T04:04:33.344Z,18.97
2022-08-16T04:07:07.102Z,18.94
2022-08-16T04:09:38.284Z,18.93
2022-08-16T04:12:11.095Z,18.92
2022-08-16T04:14:58.431Z,18.92
2022-08-16T04:17:26.881Z,18.92
2022-08-16T04:19:58.189Z,18.93
2022-08-16T04:22:28.140Z,18.93
2022-08-16T04:25:00.871Z,18.95
2022-08-16T04:27:34.599Z,18.97
2022-08-16T04:30:10.873Z,18.98
2022-08-16T04:32:43.103Z,18.98
2022-08-16T04:35:20.896Z,18.97
2022-08-16T04:37:54.024Z,18.96
2022-08-16T04:40:54.345Z,18.96
2022-08-16T04:44:02.763Z,18.97
2022-08-16T04:47:36.945Z,18.99
2022-08-16T04:50:55.453Z,19.04
2022-08-16T04:58:44.541Z,19.08
2022-08-16T05:05:17.941Z,18.98
2022-08-16T05:08:31.561Z,19.00
2022-08-16T05:12:03.429Z,19.04
2022-08-16T05:15:14.187Z,19.03
2022-08-16T05:17:58.816Z,19.03
2022-08-16T05:21:01.405Z,19.02
2022-08-16T05:24:00.324Z,19.05
2022-08-16T05:26:36.313Z,19.10
2022-08-16T05:33:33.471Z,19.18
2022-08-16T05:36:46.457Z,19.27
2022-08-16T05:40:14.034Z,19.37
2022-08-16T05:43:47.040Z,19.48
2022-08-16T05:57:00.498Z,19.98
2022-08-16T06:04:13.341Z,20.31
2022-08-16T06:11:56.471Z,20.59
2022-08-16T06:15:10.014Z,20.75
2022-08-16T06:18:49.128Z,20.87
2022-08-16T06:25:36.027Z,21.12
2022-08-16T06:32:43.087Z,21.46
2022-08-16T06:39:23.948Z,21.64
2022-08-16T06:46:17.448Z,21.47
2022-08-16T07:18:58.775Z,21.96
2022-08-16T07:22:37.495Z,22.10
2022-08-16T07:25:40.757Z,22.24
2022-08-16T07:28:41.415Z,22.33
2022-08-16T07:31:16.009Z,22.40
2022-08-16T07:34:35.137Z,22.42
2022-08-16T07:37:08.059Z,22.52
2022-08-16T07:39:50.144Z,22.60
2022-08-16T07:42:28.438Z,22.70
2022-08-16T07:45:07.477Z,22.79
2022-08-16T07:47:36.619Z,22.92
2022-08-16T07:50:07.461Z,23.06
2022-08-16T07:52:38.731Z,23.23
2022-08-16T07:55:08.858Z,23.36
2022-08-16T07:57:44.512Z,23.39
2022-08-16T08:00:28.680Z,23.42
2022-08-16T08:03:00.507Z,23.49
2022-08-16T08:05:50.609Z,23.55
2022-08-16T08:08:49.629Z,23.57
2022-08-16T08:11:23.812Z,23.55
2022-08-16T08:13:56.748Z,23.58
2022-08-16T08:16:31.029Z,23.63
2022-08-16T08:19:03.134Z,23.63
2022-08-16T08:21:59.272Z,23.65
2022-08-16T08:24:33.162Z,23.60
2022-08-16T08:27:04.291Z,23.50
2022-08-16T08:30:49.840Z,23.32
2022-08-16T08:33:00.433Z,23.04
2022-08-16T08:35:48.210Z,22.82
2022-08-16T08:38:44.291Z,22.66
2022-08-16T08:41:30.452Z,22.53
2022-08-16T08:44:27.895Z,22.39
2022-08-16T08:47:00.329Z,22.22
2022-08-16T08:49:46.211Z,21.95
2022-08-16T08:52:34.152Z,21.61
2022-08-16T08:55:12.854Z,21.33
2022-08-16T08:57:47.267Z,21.18
2022-08-16T09:00:30.043Z,21.13
2022-08-16T09:03:18.149Z,21.19
2022-08-16T09:05:55.418Z,21.29
2022-08-16T09:08:27.292Z,21.43
2022-08-16T09:11:40.827Z,21.56
2022-08-16T09:14:49.474Z,21.76
2022-08-16T09:18:26.428Z,21.95
2022-08-16T09:24:52.831Z,22.36
2022-08-16T09:31:41.022Z,22.30
2022-08-16T09:34:53.552Z,22.10
2022-08-16T09:38:08.752Z,21.92
2022-08-16T09:41:39.095Z,21.80
2022-08-16T09:45:11.227Z,21.71
2022-08-16T09:48:44.551Z,21.61
2022-08-16T09:55:49.295Z,21.38
2022-08-16T09:59:30.502Z,21.28
2022-08-16T10:02:44.090Z,20.99
2022-08-16T10:05:25.270Z,20.93
2022-08-16T10:08:02.082Z,21.10
2022-08-16T10:12:19.680Z,21.29
2022-08-16T10:14:40.793Z,21.24
2022-08-16T10:17:26.578Z,21.18
2022-08-16T10:19:57.984Z,21.21
2022-08-16T10:22:37.777Z,21.11
2022-08-16T10:25:12.519Z,20.99
2022-08-16T10:28:27.959Z,20.79
2022-08-16T10:30:58.882Z,20.66
2022-08-16T10:33:48.761Z,20.58
2022-08-16T10:36:39.225Z,20.56
2022-08-16T10:39:10.235Z,20.65
2022-08-16T10:41:38.370Z,20.68
2022-08-16T10:44:09.611Z,20.69
2022-08-16T10:46:42.002Z,20.75
2022-08-16T10:49:40.556Z,20.80
2022-08-16T10:52:18.941Z,20.84
2022-08-16T11:02:58.100Z,21.30
2022-08-16T11:05:18.150Z,21.42
2022-08-16T11:08:36.915Z,21.53
2022-08-16T11:15:24.453Z,21.97
2022-08-16T11:18:54.686Z,22.28
2022-08-16T11:22:46.871Z,22.78
2022-08-16T11:29:39.362Z,24.03
2022-08-16T11:32:53.493Z,24.43
2022-08-16T11:36:27.412Z,24.90
2022-08-16T11:40:09.246Z,25.42
2022-08-16T11:47:27.086Z,26.39
2022-08-16T11:51:13.084Z,26.99
2022-08-16T12:01:29.571Z,28.73
2022-08-16T12:15:27.032Z,30.96
2022-08-16T12:32:38.166Z,32.92
2022-08-16T12:49:21.139Z,34.24
2022-08-16T12:56:50.801Z,35.08
2022-08-16T13:04:24.356Z,34.97
2022-08-16T13:10:38.988Z,34.73
2022-08-16T13:13:31.535Z,34.82
2022-08-16T13:16:35.209Z,35.28
2022-08-16T13:21:28.830Z,35.49
2022-08-16T13:23:43.228Z,34.97
2022-08-16T13:27:12.070Z,34.48
2022-08-16T13:30:02.668Z,33.88
2022-08-16T13:32:58.630Z,34.42
2022-08-16T13:36:49.469Z,34.77
2022-08-16T13:39:57.096Z,35.36
2022-08-16T13:42:41.354Z,36.00
2022-08-16T13:45:37.333Z,36.22
2022-08-16T13:48:48.194Z,35.19
2022-08-16T13:52:09.072Z,34.54
2022-08-16T13:55:19.907Z,34.81
2022-08-16T13:58:37.231Z,35.26
2022-08-16T14:01:47.388Z,35.15
2022-08-16T14:05:14.188Z,35.27
2022-08-16T14:08:00.580Z,35.54
2022-08-16T14:10:35.827Z,34.92
2022-08-16T14:13:42.960Z,34.95
2022-08-16T14:16:34.802Z,35.70
2022-08-16T14:19:32.822Z,36.41
2022-08-16T14:22:43.969Z,37.15
2022-08-16T14:25:27.163Z,37.61
2022-08-16T14:28:39.947Z,37.53
2022-08-16T14:31:19.275Z,37.55
2022-08-16T14:33:49.864Z,37.84
2022-08-16T14:36:29.955Z,37.84
2022-08-16T14:39:00.592Z,38.15
2022-08-16T14:44:57.565Z,38.70
2022-08-16T14:45:07.010Z,38.48
2022-08-16T14:47:57.388Z,38.50
2022-08-16T14:50:28.557Z,38.71
2022-08-16T14:53:04.897Z,38.79
2022-08-16T14:55:45.872Z,39.00
2022-08-16T14:58:19.179Z,39.01
2022-08-16T15:00:50.938Z,37.86
2022-08-16T15:04:01.909Z,36.44
2022-08-16T15:10:24.024Z,37.66
2022-08-16T15:12:58.829Z,38.11
2022-08-16T15:15:32.862Z,37.35
2022-08-16T15:18:02.291Z,36.92
2022-08-16T15:20:41.474Z,37.04
2022-08-16T15:23:16.334Z,37.18
2022-08-16T15:26:03.132Z,36.65
2022-08-16T15:28:34.796Z,35.62
2022-08-16T15:31:06.570Z,34.97
2022-08-16T15:33:38.900Z,34.90
2022-08-16T15:36:13.955Z,35.32
2022-08-16T15:39:05.559Z,35.84
2022-08-16T15:41:55.010Z,36.13
2022-08-16T15:44:26.754Z,36.66
2022-08-16T15:46:59.841Z,36.61
2022-08-16T15:49:37.884Z,36.37
2022-08-16T15:52:24.747Z,36.45
2022-08-16T15:55:13.259Z,36.49
2022-08-16T15:57:51.326Z,36.34
2022-08-16T16:00:20.673Z,36.34
2022-08-16T16:02:49.448Z,36.35
2022-08-16T16:05:19.541Z,36.09
2022-08-16T16:07:56.900Z,36.23
2022-08-16T16:10:34.009Z,36.26
2022-08-16T16:13:04.755Z,36.33
2022-08-16T16:15:38.121Z,36.34
2022-08-16T16:18:09.801Z,35.80
2022-08-16T16:20:43.864Z,35.78
2022-08-16T16:23:12.563Z,35.66
2022-08-16T16:25:43.932Z,35.58
2022-08-16T16:28:46.049Z,35.54
2022-08-16T16:31:08.063Z,35.62
2022-08-16T16:33:43.571Z,35.61
2022-08-16T16:36:15.281Z,35.49
2022-08-16T16:38:48.503Z,35.23
2022-08-16T16:41:22.658Z,35.06
2022-08-16T16:44:02.717Z,34.84
2022-08-16T16:46:56.893Z,34.46
2022-08-16T16:50:31.965Z,33.95
2022-08-16T16:53:56.268Z,33.48
2022-08-16T16:56:50.135Z,33.03
2022-08-16T16:59:42.564Z,32.59
2022-08-16T17:02:41.054Z,32.19
2022-08-16T17:06:38.027Z,31.83
2022-08-16T17:09:59.643Z,31.41
2022-08-16T17:13:19.656Z,30.83
2022-08-16T17:16:32.966Z,30.09
2022-08-16T17:19:31.382Z,29.30
2022-08-16T17:22:02.833Z,28.65
2022-08-16T17:24:58.269Z,28.10
2022-08-16T17:27:32.870Z,27.67
2022-08-16T17:30:16.550Z,27.29
2022-08-16T17:34:29.203Z,26.93
2022-08-16T17:36:54.583Z,26.54
2022-08-16T17:39:23.697Z,26.27
2022-08-16T17:42:07.578Z,26.09
2022-08-16T17:45:37.253Z,25.85
2022-08-16T17:49:03.914Z,25.62
2022-08-16T17:51:53.120Z,25.36
2022-08-16T17:57:48.365Z,25.01
2022-08-16T18:00:24.019Z,24.86
2022-08-16T18:03:18.717Z,24.74
2022-08-16T18:06:14.878Z,24.62
2022-08-16T18:09:19.585Z,24.51
2022-08-16T18:12:50.892Z,24.41
2022-08-16T18:15:23.353Z,24.29
2022-08-16T18:18:34.392Z,24.21
2022-08-16T18:21:42.909Z,24.09
2022-08-16T18:24:57.071Z,23.96
2022-08-16T18:27:54.578Z,23.82
2022-08-16T18:30:39.212Z,23.68
2022-08-16T18:33:29.578Z,23.54
2022-08-16T18:36:01.103Z,23.42
2022-08-16T18:38:38.230Z,23.40
2022-08-16T18:41:30.600Z,23.40
2022-08-16T18:44:34.700Z,23.46
2022-08-16T18:47:35.144Z,23.46
2022-08-16T18:50:24.061Z,23.37
2022-08-16T18:53:14.337Z,23.25
2022-08-16T18:55:45.466Z,23.15
2022-08-16T18:58:14.600Z,23.09
2022-08-16T19:00:56.306Z,23.03
2022-08-16T19:03:47.355Z,23.02
2022-08-16T19:06:35.351Z,22.95
2022-08-16T19:09:04.485Z,22.91
2022-08-16T19:11:34.504Z,22.90
2022-08-16T19:14:37.598Z,22.84
2022-08-16T19:17:46.611Z,22.78
2022-08-16T19:20:54.747Z,22.71
2022-08-16T19:24:03.691Z,22.63
2022-08-16T19:27:09.601Z,22.58
2022-08-16T19:30:23.690Z,22.52
2022-08-16T19:33:17.593Z,22.44
2022-08-16T19:36:31.456Z,22.40
2022-08-16T19:39:32.437Z,22.27
2022-08-16T19:42:41.599Z,22.18
2022-08-16T19:45:54.716Z,21.93
2022-08-16T19:49:09.718Z,21.75
2022-08-16T19:52:39.931Z,21.30
2022-08-16T19:55:47.795Z,20.81
2022-08-16T19:58:56.356Z,20.56
2022-08-16T20:02:37.623Z,20.27
2022-08-16T20:05:43.625Z,20.14
2022-08-16T20:09:14.478Z,20.06
2022-08-16T20:12:21.718Z,19.98
2022-08-16T20:15:34.214Z,19.93
2022-08-16T20:18:45.747Z,19.85
2022-08-16T20:21:40.637Z,19.78
2022-08-16T20:24:39.686Z,19.70
2022-08-16T20:27:51.602Z,19.64
2022-08-16T20:31:03.622Z,19.57
2022-08-16T20:37:47.852Z,19.50
2022-08-16T20:40:56.645Z,19.40
2022-08-16T20:44:06.599Z,19.33
2022-08-16T20:47:16.930Z,19.26
2022-08-16T20:50:22.658Z,19.25
2022-08-16T20:53:41.956Z,19.23
2022-08-16T21:00:14.616Z,19.14
2022-08-16T21:03:21.645Z,19.16
2022-08-16T21:06:33.440Z,19.17
2022-08-16T21:09:46.661Z,19.21
2022-08-16T21:16:17.624Z,19.31
2022-08-16T21:23:21.633Z,19.41
2022-08-16T21:29:42.885Z,19.48
2022-08-16T21:32:39.753Z,19.52
2022-08-16T21:35:53.759Z,19.52
2022-08-16T21:38:34.518Z,19.34
2022-08-16T21:41:04.894Z,19.23
2022-08-16T21:43:34.229Z,19.22
2022-08-16T21:46:03.865Z,19.20
2022-08-16T21:48:34.380Z,19.15
2022-08-16T21:51:07.322Z,19.05
2022-08-16T21:53:36.264Z,18.99
2022-08-16T21:56:07.030Z,18.93
2022-08-16T21:58:37.890Z,18.91
2022-08-16T22:01:06.633Z,18.88
2022-08-16T22:03:35.354Z,18.86
2022-08-16T22:06:14.174Z,18.85
2022-08-16T22:08:50.317Z,18.84
2022-08-16T22:11:19.629Z,18.80
2022-08-16T22:13:57.126Z,18.74
2022-08-16T22:16:32.071Z,18.71
2022-08-16T22:19:01.206Z,18.67
2022-08-16T22:21:30.635Z,18.65
2022-08-16T22:23:59.112Z,18.65
2022-08-16T22:26:32.037Z,18.65
2022-08-16T22:29:02.092Z,18.66
2022-08-16T22:31:31.210Z,18.67
2022-08-16T22:34:01.576Z,18.69
2022-08-16T22:36:32.833Z,18.70
2022-08-16T22:39:04.779Z,18.68
2022-08-16T22:41:34.541Z,18.67
2022-08-16T22:44:03.960Z,18.65
2022-08-16T22:46:33.249Z,18.61
2022-08-16T22:49:01.171Z,18.57
2022-08-16T22:51:29.130Z,18.53
2022-08-16T22:53:58.053Z,18.50
2022-08-16T22:56:26.186Z,18.48
2022-08-16T22:58:54.405Z,18.44
2022-08-16T23:01:24.662Z,18.40
2022-08-16T23:03:55.654Z,18.34
2022-08-16T23:06:24.595Z,18.25
2022-08-16T23:08:52.641Z,18.17
2022-08-16T23:11:23.722Z,18.12
2022-08-16T23:13:54.913Z,18.09
2022-08-16T23:16:32.219Z,18.08
2022-08-16T23:19:07.444Z,18.08
2022-08-16T23:21:37.396Z,18.09
2022-08-16T23:24:07.581Z,18.12
2022-08-16T23:26:47.619Z,18.13
2022-08-16T23:29:23.249Z,18.14
2022-08-16T23:31:56.618Z,18.13
2022-08-16T23:34:24.924Z,18.12
2022-08-16T23:36:52.770Z,18.13
2022-08-16T23:39:20.707Z,18.13
2022-08-16T23:41:48.651Z,18.12
2022-08-16T23:44:55.587Z,18.09
2022-08-16T23:47:06.137Z,18.03
2022-08-16T23:49:58.571Z,17.96
2022-08-16T23:52:45.241Z,17.89
2022-08-16T23:55:10.428Z,17.79
2022-08-16T23:57:38.579Z,17.75
